Aviation Digital Data Service (ADDS)

Output produced by METARs form (1646 UTC 20 January 2019)
found at http://www.aviationweather.gov/metar/data/
 
FEFF 201600Z 18005KT 9999 FEW020 33/21 Q1008 NOSIG
TAF FEFF 201100Z 2012/2118 24005KT 9999 BKN023 
     PROB30 
     TEMPO 2014/2018 TS FEW040CB 
     BECMG 2102/2104 3000 BR BKN004